sensor_id;sensor_type;location;lat;lon;timestamp;P1;durP1;ratioP1;P2;durP2;ratioP2
13475;SDS011;6810;63.824;20.288;2024-03-02T00:00:06;9.37;;;4.83;;
13475;SDS011;6810;63.824;20.288;2024-03-02T00:02:57;11.83;;;5.30;;
13475;SDS011;6810;63.824;20.288;2024-03-02T00:05:44;10.40;;;5.03;;
13475;SDS011;6810;63.824;20.288;2024-03-02T00:08:38;7.57;;;4.20;;
13475;SDS011;6810;63.824;20.288;2024-03-02T00:11:25;7.67;;;4.40;;
13475;SDS011;6810;63.824;20.288;2024-03-02T00:14:12;7.67;;;4.77;;
13475;SDS011;6810;63.824;20.288;2024-03-02T00:17:01;10.13;;;4.60;;
13475;SDS011;6810;63.824;20.288;2024-03-02T00:19:49;7.80;;;3.90;;
13475;SDS011;6810;63.824;20.288;2024-03-02T00:22:35;5.77;;;3.77;;
13475;SDS011;6810;63.824;20.288;2024-03-02T00:25:23;8.53;;;4.20;;
13475;SDS011;6810;63.824;20.288;2024-03-02T00:28:23;5.07;;;3.50;;
13475;SDS011;6810;63.824;20.288;2024-03-02T00:31:12;8.10;;;4.00;;
13475;SDS011;6810;63.824;20.288;2024-03-02T00:33:59;6.63;;;3.60;;
13475;SDS011;6810;63.824;20.288;2024-03-02T00:36:51;10.37;;;4.17;;
13475;SDS011;6810;63.824;20.288;2024-03-02T00:39:38;8.60;;;3.93;;
13475;SDS011;6810;63.824;20.288;2024-03-02T00:42:25;6.07;;;3.97;;
13475;SDS011;6810;63.824;20.288;2024-03-02T00:45:12;7.77;;;4.50;;
13475;SDS011;6810;63.824;20.288;2024-03-02T00:47:59;6.70;;;4.00;;
13475;SDS011;6810;63.824;20.288;2024-03-02T00:50:49;7.83;;;4.53;;
13475;SDS011;6810;63.824;20.288;2024-03-02T00:53:39;9.57;;;5.10;;
13475;SDS011;6810;63.824;20.288;2024-03-02T00:56:26;8.80;;;5.17;;
13475;SDS011;6810;63.824;20.288;2024-03-02T00:59:13;9.10;;;4.67;;
13475;SDS011;6810;63.824;20.288;2024-03-02T01:02:00;9.97;;;5.13;;
13475;SDS011;6810;63.824;20.288;2024-03-02T01:04:47;11.20;;;5.30;;
13475;SDS011;6810;63.824;20.288;2024-03-02T01:07:34;9.97;;;4.20;;
13475;SDS011;6810;63.824;20.288;2024-03-02T01:10:21;8.20;;;4.13;;
13475;SDS011;6810;63.824;20.288;2024-03-02T01:13:07;8.53;;;3.87;;
13475;SDS011;6810;63.824;20.288;2024-03-02T01:15:54;9.40;;;4.47;;
13475;SDS011;6810;63.824;20.288;2024-03-02T01:18:42;10.07;;;4.30;;
13475;SDS011;6810;63.824;20.288;2024-03-02T01:21:29;7.97;;;4.50;;
13475;SDS011;6810;63.824;20.288;2024-03-02T01:24:16;7.57;;;3.93;;
13475;SDS011;6810;63.824;20.288;2024-03-02T01:27:03;9.00;;;3.73;;
13475;SDS011;6810;63.824;20.288;2024-03-02T01:29:51;5.90;;;3.43;;
13475;SDS011;6810;63.824;20.288;2024-03-02T01:32:38;7.10;;;4.07;;
13475;SDS011;6810;63.824;20.288;2024-03-02T01:35:25;7.73;;;3.60;;
13475;SDS011;6810;63.824;20.288;2024-03-02T01:38:12;6.23;;;3.87;;
13475;SDS011;6810;63.824;20.288;2024-03-02T01:40:59;6.47;;;3.57;;
13475;SDS011;6810;63.824;20.288;2024-03-02T01:43:46;6.17;;;3.90;;
13475;SDS011;6810;63.824;20.288;2024-03-02T01:46:33;6.87;;;3.50;;
13475;SDS011;6810;63.824;20.288;2024-03-02T01:49:20;7.60;;;3.97;;
13475;SDS011;6810;63.824;20.288;2024-03-02T01:52:07;7.63;;;4.50;;
13475;SDS011;6810;63.824;20.288;2024-03-02T01:54:54;8.37;;;4.30;;
13475;SDS011;6810;63.824;20.288;2024-03-02T01:57:41;6.43;;;4.17;;
13475;SDS011;6810;63.824;20.288;2024-03-02T02:00:28;7.90;;;4.03;;
13475;SDS011;6810;63.824;20.288;2024-03-02T02:03:15;7.60;;;3.63;;
13475;SDS011;6810;63.824;20.288;2024-03-02T02:06:02;8.50;;;4.30;;
13475;SDS011;6810;63.824;20.288;2024-03-02T02:08:49;8.67;;;3.80;;
13475;SDS011;6810;63.824;20.288;2024-03-02T02:11:36;8.50;;;4.00;;
13475;SDS011;6810;63.824;20.288;2024-03-02T02:14:23;8.50;;;4.60;;
13475;SDS011;6810;63.824;20.288;2024-03-02T02:17:10;8.33;;;4.20;;
13475;SDS011;6810;63.824;20.288;2024-03-02T02:19:57;9.73;;;4.23;;
13475;SDS011;6810;63.824;20.288;2024-03-02T02:23:04;7.53;;;3.83;;
13475;SDS011;6810;63.824;20.288;2024-03-02T02:25:54;7.70;;;4.17;;
13475;SDS011;6810;63.824;20.288;2024-03-02T02:28:41;7.47;;;3.60;;
13475;SDS011;6810;63.824;20.288;2024-03-02T02:31:36;6.57;;;3.80;;
13475;SDS011;6810;63.824;20.288;2024-03-02T02:34:27;7.70;;;4.50;;
13475;SDS011;6810;63.824;20.288;2024-03-02T02:37:14;7.23;;;4.10;;
13475;SDS011;6810;63.824;20.288;2024-03-02T02:39:41;6.43;;;3.90;;
13475;SDS011;6810;63.824;20.288;2024-03-02T02:42:28;7.70;;;4.37;;
13475;SDS011;6810;63.824;20.288;2024-03-02T02:45:15;7.20;;;3.77;;
13475;SDS011;6810;63.824;20.288;2024-03-02T02:48:02;8.47;;;3.60;;
13475;SDS011;6810;63.824;20.288;2024-03-02T02:50:49;8.63;;;3.47;;
13475;SDS011;6810;63.824;20.288;2024-03-02T02:53:36;6.17;;;3.80;;
13475;SDS011;6810;63.824;20.288;2024-03-02T02:56:23;6.60;;;3.73;;
13475;SDS011;6810;63.824;20.288;2024-03-02T02:59:10;6.43;;;3.70;;
13475;SDS011;6810;63.824;20.288;2024-03-02T03:01:57;6.37;;;3.40;;
13475;SDS011;6810;63.824;20.288;2024-03-02T03:04:44;4.47;;;3.30;;
13475;SDS011;6810;63.824;20.288;2024-03-02T03:07:31;5.33;;;3.00;;
13475;SDS011;6810;63.824;20.288;2024-03-02T03:10:18;3.90;;;2.67;;
13475;SDS011;6810;63.824;20.288;2024-03-02T03:13:05;7.43;;;3.10;;
13475;SDS011;6810;63.824;20.288;2024-03-02T03:15:52;6.23;;;3.60;;
13475;SDS011;6810;63.824;20.288;2024-03-02T03:18:39;4.87;;;2.93;;
13475;SDS011;6810;63.824;20.288;2024-03-02T03:21:26;4.03;;;2.93;;
13475;SDS011;6810;63.824;20.288;2024-03-02T03:24:13;5.50;;;2.80;;
13475;SDS011;6810;63.824;20.288;2024-03-02T03:27:00;5.53;;;2.70;;
13475;SDS011;6810;63.824;20.288;2024-03-02T03:29:47;5.03;;;2.70;;
13475;SDS011;6810;63.824;20.288;2024-03-02T03:32:34;5.70;;;3.00;;
13475;SDS011;6810;63.824;20.288;2024-03-02T03:35:21;4.33;;;2.70;;
13475;SDS011;6810;63.824;20.288;2024-03-02T03:38:08;5.30;;;2.67;;
13475;SDS011;6810;63.824;20.288;2024-03-02T03:40:55;7.80;;;3.27;;
13475;SDS011;6810;63.824;20.288;2024-03-02T03:43:42;6.10;;;3.17;;
13475;SDS011;6810;63.824;20.288;2024-03-02T03:46:29;6.00;;;2.80;;
13475;SDS011;6810;63.824;20.288;2024-03-02T03:49:16;5.47;;;2.73;;
13475;SDS011;6810;63.824;20.288;2024-03-02T03:52:03;4.17;;;2.70;;
13475;SDS011;6810;63.824;20.288;2024-03-02T03:54:50;4.50;;;2.97;;
13475;SDS011;6810;63.824;20.288;2024-03-02T03:57:37;5.57;;;3.20;;
13475;SDS011;6810;63.824;20.288;2024-03-02T04:00:24;5.40;;;3.03;;
13475;SDS011;6810;63.824;20.288;2024-03-02T04:03:11;6.57;;;3.03;;
13475;SDS011;6810;63.824;20.288;2024-03-02T04:05:58;7.83;;;3.93;;
13475;SDS011;6810;63.824;20.288;2024-03-02T04:08:45;6.57;;;3.23;;
13475;SDS011;6810;63.824;20.288;2024-03-02T04:11:32;6.43;;;3.20;;
13475;SDS011;6810;63.824;20.288;2024-03-02T04:14:19;5.40;;;3.00;;
13475;SDS011;6810;63.824;20.288;2024-03-02T04:17:05;7.13;;;3.23;;
13475;SDS011;6810;63.824;20.288;2024-03-02T04:19:52;5.07;;;3.07;;
13475;SDS011;6810;63.824;20.288;2024-03-02T04:22:39;5.23;;;3.17;;
13475;SDS011;6810;63.824;20.288;2024-03-02T04:25:26;6.47;;;3.30;;
13475;SDS011;6810;63.824;20.288;2024-03-02T04:28:13;6.50;;;3.47;;
13475;SDS011;6810;63.824;20.288;2024-03-02T04:31:00;6.03;;;3.27;;
13475;SDS011;6810;63.824;20.288;2024-03-02T04:33:47;5.77;;;3.33;;
13475;SDS011;6810;63.824;20.288;2024-03-02T04:36:34;4.83;;;2.93;;
13475;SDS011;6810;63.824;20.288;2024-03-02T04:39:21;6.13;;;3.10;;
13475;SDS011;6810;63.824;20.288;2024-03-02T04:42:07;7.17;;;3.20;;
13475;SDS011;6810;63.824;20.288;2024-03-02T04:44:54;5.80;;;3.03;;
13475;SDS011;6810;63.824;20.288;2024-03-02T04:47:41;5.37;;;3.00;;
13475;SDS011;6810;63.824;20.288;2024-03-02T04:50:28;5.77;;;3.37;;
13475;SDS011;6810;63.824;20.288;2024-03-02T04:53:15;6.60;;;3.50;;
13475;SDS011;6810;63.824;20.288;2024-03-02T04:56:02;6.83;;;3.80;;
13475;SDS011;6810;63.824;20.288;2024-03-02T04:58:47;6.50;;;3.73;;
13475;SDS011;6810;63.824;20.288;2024-03-02T05:01:34;6.90;;;3.87;;
13475;SDS011;6810;63.824;20.288;2024-03-02T05:04:21;5.53;;;3.13;;
13475;SDS011;6810;63.824;20.288;2024-03-02T05:07:08;7.40;;;3.53;;
13475;SDS011;6810;63.824;20.288;2024-03-02T05:09:55;6.50;;;3.57;;
13475;SDS011;6810;63.824;20.288;2024-03-02T05:12:42;5.73;;;3.50;;
13475;SDS011;6810;63.824;20.288;2024-03-02T05:15:13;7.27;;;3.63;;
13475;SDS011;6810;63.824;20.288;2024-03-02T05:18:00;5.67;;;3.30;;
13475;SDS011;6810;63.824;20.288;2024-03-02T05:20:47;7.77;;;3.77;;
13475;SDS011;6810;63.824;20.288;2024-03-02T05:23:34;5.23;;;3.40;;
13475;SDS011;6810;63.824;20.288;2024-03-02T05:26:21;4.47;;;3.03;;
13475;SDS011;6810;63.824;20.288;2024-03-02T05:29:08;6.07;;;3.50;;
13475;SDS011;6810;63.824;20.288;2024-03-02T05:31:55;6.07;;;3.23;;
13475;SDS011;6810;63.824;20.288;2024-03-02T05:34:42;4.37;;;3.07;;
13475;SDS011;6810;63.824;20.288;2024-03-02T05:37:29;5.57;;;3.50;;
13475;SDS011;6810;63.824;20.288;2024-03-02T05:40:16;4.43;;;2.87;;
13475;SDS011;6810;63.824;20.288;2024-03-02T05:43:03;6.30;;;3.53;;
13475;SDS011;6810;63.824;20.288;2024-03-02T05:45:50;3.80;;;2.73;;
13475;SDS011;6810;63.824;20.288;2024-03-02T05:48:37;5.77;;;3.03;;
13475;SDS011;6810;63.824;20.288;2024-03-02T05:51:24;5.40;;;3.37;;
13475;SDS011;6810;63.824;20.288;2024-03-02T05:54:11;5.73;;;3.40;;
13475;SDS011;6810;63.824;20.288;2024-03-02T05:56:38;5.47;;;3.23;;
13475;SDS011;6810;63.824;20.288;2024-03-02T05:59:05;5.87;;;3.70;;
13475;SDS011;6810;63.824;20.288;2024-03-02T06:01:35;4.70;;;2.73;;
13475;SDS011;6810;63.824;20.288;2024-03-02T06:04:02;5.37;;;3.40;;
13475;SDS011;6810;63.824;20.288;2024-03-02T06:06:50;6.03;;;3.23;;
13475;SDS011;6810;63.824;20.288;2024-03-02T06:09:36;5.47;;;2.90;;
13475;SDS011;6810;63.824;20.288;2024-03-02T06:12:23;4.27;;;3.00;;
13475;SDS011;6810;63.824;20.288;2024-03-02T06:15:10;5.97;;;3.47;;
13475;SDS011;6810;63.824;20.288;2024-03-02T06:17:57;6.37;;;3.10;;
13475;SDS011;6810;63.824;20.288;2024-03-02T06:20:44;6.53;;;3.30;;
13475;SDS011;6810;63.824;20.288;2024-03-02T06:23:31;5.30;;;3.47;;
13475;SDS011;6810;63.824;20.288;2024-03-02T06:26:18;5.40;;;3.53;;
13475;SDS011;6810;63.824;20.288;2024-03-02T06:29:06;6.30;;;3.33;;
13475;SDS011;6810;63.824;20.288;2024-03-02T06:31:52;7.63;;;3.73;;
13475;SDS011;6810;63.824;20.288;2024-03-02T06:34:39;6.63;;;4.20;;
13475;SDS011;6810;63.824;20.288;2024-03-02T06:37:26;8.40;;;4.07;;
13475;SDS011;6810;63.824;20.288;2024-03-02T06:40:13;10.07;;;4.60;;
13475;SDS011;6810;63.824;20.288;2024-03-02T06:43:00;9.30;;;4.67;;
13475;SDS011;6810;63.824;20.288;2024-03-02T06:45:47;7.60;;;4.20;;
13475;SDS011;6810;63.824;20.288;2024-03-02T06:48:34;9.20;;;4.53;;
13475;SDS011;6810;63.824;20.288;2024-03-02T06:51:21;9.50;;;4.80;;
13475;SDS011;6810;63.824;20.288;2024-03-02T06:54:08;8.03;;;4.60;;
13475;SDS011;6810;63.824;20.288;2024-03-02T06:56:55;9.37;;;5.10;;
13475;SDS011;6810;63.824;20.288;2024-03-02T06:59:42;10.00;;;5.07;;
13475;SDS011;6810;63.824;20.288;2024-03-02T07:02:29;12.57;;;5.40;;
13475;SDS011;6810;63.824;20.288;2024-03-02T07:05:16;8.63;;;4.43;;
13475;SDS011;6810;63.824;20.288;2024-03-02T07:08:03;7.67;;;4.50;;
13475;SDS011;6810;63.824;20.288;2024-03-02T07:10:50;9.43;;;4.83;;
13475;SDS011;6810;63.824;20.288;2024-03-02T07:13:37;8.27;;;4.80;;
13475;SDS011;6810;63.824;20.288;2024-03-02T07:16:04;8.13;;;4.37;;
13475;SDS011;6810;63.824;20.288;2024-03-02T07:18:37;9.20;;;5.00;;
13475;SDS011;6810;63.824;20.288;2024-03-02T07:21:24;8.67;;;4.40;;
13475;SDS011;6810;63.824;20.288;2024-03-02T07:24:11;8.13;;;4.70;;
13475;SDS011;6810;63.824;20.288;2024-03-02T07:26:58;7.47;;;4.70;;
13475;SDS011;6810;63.824;20.288;2024-03-02T07:29:45;8.63;;;4.50;;
13475;SDS011;6810;63.824;20.288;2024-03-02T07:32:32;8.20;;;4.80;;
13475;SDS011;6810;63.824;20.288;2024-03-02T07:35:19;8.37;;;4.70;;
13475;SDS011;6810;63.824;20.288;2024-03-02T07:38:06;7.80;;;3.80;;
13475;SDS011;6810;63.824;20.288;2024-03-02T07:40:53;7.40;;;4.47;;
13475;SDS011;6810;63.824;20.288;2024-03-02T07:43:40;6.87;;;4.30;;
13475;SDS011;6810;63.824;20.288;2024-03-02T07:46:27;7.50;;;4.37;;
13475;SDS011;6810;63.824;20.288;2024-03-02T07:49:14;7.40;;;4.57;;
13475;SDS011;6810;63.824;20.288;2024-03-02T07:52:01;9.80;;;4.47;;
13475;SDS011;6810;63.824;20.288;2024-03-02T07:54:48;7.17;;;3.93;;
13475;SDS011;6810;63.824;20.288;2024-03-02T07:57:35;7.60;;;4.47;;
13475;SDS011;6810;63.824;20.288;2024-03-02T08:00:22;8.03;;;4.43;;
13475;SDS011;6810;63.824;20.288;2024-03-02T08:03:10;7.27;;;4.20;;
13475;SDS011;6810;63.824;20.288;2024-03-02T08:05:57;8.40;;;4.57;;
13475;SDS011;6810;63.824;20.288;2024-03-02T08:08:44;6.13;;;4.03;;
13475;SDS011;6810;63.824;20.288;2024-03-02T08:11:31;7.60;;;4.13;;
13475;SDS011;6810;63.824;20.288;2024-03-02T08:14:18;8.27;;;4.30;;
13475;SDS011;6810;63.824;20.288;2024-03-02T08:17:05;7.40;;;4.43;;
13475;SDS011;6810;63.824;20.288;2024-03-02T08:19:52;5.97;;;4.10;;
13475;SDS011;6810;63.824;20.288;2024-03-02T08:22:40;8.50;;;4.93;;
13475;SDS011;6810;63.824;20.288;2024-03-02T08:25:27;6.47;;;4.27;;
13475;SDS011;6810;63.824;20.288;2024-03-02T08:28:14;8.83;;;4.50;;
13475;SDS011;6810;63.824;20.288;2024-03-02T08:31:01;8.13;;;4.57;;
13475;SDS011;6810;63.824;20.288;2024-03-02T08:33:48;7.60;;;4.80;;
13475;SDS011;6810;63.824;20.288;2024-03-02T08:36:35;7.77;;;4.57;;
13475;SDS011;6810;63.824;20.288;2024-03-02T08:39:22;7.03;;;4.37;;
13475;SDS011;6810;63.824;20.288;2024-03-02T08:42:09;7.03;;;4.27;;
13475;SDS011;6810;63.824;20.288;2024-03-02T08:44:56;8.80;;;5.10;;
13475;SDS011;6810;63.824;20.288;2024-03-02T08:47:43;8.67;;;4.87;;
13475;SDS011;6810;63.824;20.288;2024-03-02T08:50:31;9.43;;;5.03;;
13475;SDS011;6810;63.824;20.288;2024-03-02T08:53:18;9.03;;;4.90;;
13475;SDS011;6810;63.824;20.288;2024-03-02T08:56:05;8.40;;;5.10;;
13475;SDS011;6810;63.824;20.288;2024-03-02T08:58:52;9.37;;;5.00;;
13475;SDS011;6810;63.824;20.288;2024-03-02T09:01:40;8.13;;;4.53;;
13475;SDS011;6810;63.824;20.288;2024-03-02T09:04:27;8.57;;;4.73;;
13475;SDS011;6810;63.824;20.288;2024-03-02T09:07:14;8.00;;;4.87;;
13475;SDS011;6810;63.824;20.288;2024-03-02T09:10:01;7.43;;;4.73;;
13475;SDS011;6810;63.824;20.288;2024-03-02T09:12:51;8.80;;;4.90;;
13475;SDS011;6810;63.824;20.288;2024-03-02T09:15:39;7.73;;;3.97;;
13475;SDS011;6810;63.824;20.288;2024-03-02T09:18:26;8.70;;;4.80;;
13475;SDS011;6810;63.824;20.288;2024-03-02T09:21:13;8.23;;;4.83;;
13475;SDS011;6810;63.824;20.288;2024-03-02T09:24:00;9.30;;;5.03;;
13475;SDS011;6810;63.824;20.288;2024-03-02T09:26:50;8.43;;;4.83;;
13475;SDS011;6810;63.824;20.288;2024-03-02T09:29:37;8.07;;;4.60;;
13475;SDS011;6810;63.824;20.288;2024-03-02T09:32:24;8.47;;;4.80;;
13475;SDS011;6810;63.824;20.288;2024-03-02T09:35:12;8.87;;;4.60;;
13475;SDS011;6810;63.824;20.288;2024-03-02T09:37:39;7.33;;;4.63;;
13475;SDS011;6810;63.824;20.288;2024-03-02T09:40:06;8.87;;;4.73;;
13475;SDS011;6810;63.824;20.288;2024-03-02T09:42:54;8.67;;;5.03;;
13475;SDS011;6810;63.824;20.288;2024-03-02T09:45:40;7.57;;;4.47;;
13475;SDS011;6810;63.824;20.288;2024-03-02T09:48:28;8.10;;;5.17;;
13475;SDS011;6810;63.824;20.288;2024-03-02T09:51:15;6.93;;;4.60;;
13475;SDS011;6810;63.824;20.288;2024-03-02T09:54:02;7.07;;;4.07;;
13475;SDS011;6810;63.824;20.288;2024-03-02T09:56:49;7.83;;;4.37;;
13475;SDS011;6810;63.824;20.288;2024-03-02T09:59:37;8.83;;;5.37;;
13475;SDS011;6810;63.824;20.288;2024-03-02T10:02:23;8.90;;;5.00;;
13475;SDS011;6810;63.824;20.288;2024-03-02T10:05:11;8.30;;;4.70;;
13475;SDS011;6810;63.824;20.288;2024-03-02T10:07:58;7.50;;;4.83;;
13475;SDS011;6810;63.824;20.288;2024-03-02T10:10:49;7.77;;;4.50;;
13475;SDS011;6810;63.824;20.288;2024-03-02T10:13:36;10.00;;;5.33;;
13475;SDS011;6810;63.824;20.288;2024-03-02T10:16:23;7.07;;;4.47;;
13475;SDS011;6810;63.824;20.288;2024-03-02T10:19:28;7.30;;;5.20;;
13475;SDS011;6810;63.824;20.288;2024-03-02T10:22:15;7.93;;;4.60;;
13475;SDS011;6810;63.824;20.288;2024-03-02T10:25:01;6.83;;;4.53;;
13475;SDS011;6810;63.824;20.288;2024-03-02T10:28:05;7.37;;;4.23;;
13475;SDS011;6810;63.824;20.288;2024-03-02T10:30:52;8.83;;;5.23;;
13475;SDS011;6810;63.824;20.288;2024-03-02T10:33:39;8.00;;;4.97;;
13475;SDS011;6810;63.824;20.288;2024-03-02T10:36:26;7.60;;;5.07;;
13475;SDS011;6810;63.824;20.288;2024-03-02T10:39:15;10.53;;;5.57;;
13475;SDS011;6810;63.824;20.288;2024-03-02T10:42:02;8.97;;;5.23;;
13475;SDS011;6810;63.824;20.288;2024-03-02T10:44:50;7.50;;;4.57;;
13475;SDS011;6810;63.824;20.288;2024-03-02T10:47:37;8.87;;;5.03;;
13475;SDS011;6810;63.824;20.288;2024-03-02T10:53:37;7.87;;;4.90;;
13475;SDS011;6810;63.824;20.288;2024-03-02T10:56:28;9.57;;;5.07;;
13475;SDS011;6810;63.824;20.288;2024-03-02T11:02:17;7.23;;;4.70;;
13475;SDS011;6810;63.824;20.288;2024-03-02T11:05:08;7.30;;;4.73;;
13475;SDS011;6810;63.824;20.288;2024-03-02T14:57:06;9.07;;;5.23;;
13475;SDS011;6810;63.824;20.288;2024-03-02T14:59:35;11.60;;;5.80;;
13475;SDS011;6810;63.824;20.288;2024-03-02T15:02:21;10.13;;;5.40;;
13475;SDS011;6810;63.824;20.288;2024-03-02T15:05:08;10.90;;;5.67;;
13475;SDS011;6810;63.824;20.288;2024-03-02T15:07:56;11.20;;;5.90;;
13475;SDS011;6810;63.824;20.288;2024-03-02T15:10:42;12.60;;;5.60;;
13475;SDS011;6810;63.824;20.288;2024-03-02T15:13:29;11.47;;;5.90;;
13475;SDS011;6810;63.824;20.288;2024-03-02T15:16:17;12.93;;;6.20;;
13475;SDS011;6810;63.824;20.288;2024-03-02T15:19:04;12.00;;;6.23;;
13475;SDS011;6810;63.824;20.288;2024-03-02T15:21:51;12.73;;;6.17;;
13475;SDS011;6810;63.824;20.288;2024-03-02T15:24:38;9.90;;;5.17;;
13475;SDS011;6810;63.824;20.288;2024-03-02T15:27:25;10.17;;;5.80;;
13475;SDS011;6810;63.824;20.288;2024-03-02T15:30:12;11.20;;;5.87;;
13475;SDS011;6810;63.824;20.288;2024-03-02T15:32:59;12.03;;;5.90;;
13475;SDS011;6810;63.824;20.288;2024-03-02T15:35:46;10.70;;;5.93;;
13475;SDS011;6810;63.824;20.288;2024-03-02T15:38:33;9.67;;;5.30;;
13475;SDS011;6810;63.824;20.288;2024-03-02T15:41:20;9.57;;;5.27;;
13475;SDS011;6810;63.824;20.288;2024-03-02T15:44:07;11.67;;;5.57;;
13475;SDS011;6810;63.824;20.288;2024-03-02T15:46:56;12.17;;;6.00;;
13475;SDS011;6810;63.824;20.288;2024-03-02T15:49:44;9.77;;;5.80;;
13475;SDS011;6810;63.824;20.288;2024-03-02T15:52:31;9.03;;;5.60;;
13475;SDS011;6810;63.824;20.288;2024-03-02T15:55:17;8.80;;;5.67;;
13475;SDS011;6810;63.824;20.288;2024-03-02T15:58:04;10.37;;;5.50;;
13475;SDS011;6810;63.824;20.288;2024-03-02T16:00:52;9.93;;;5.60;;
13475;SDS011;6810;63.824;20.288;2024-03-02T16:03:39;8.70;;;5.53;;
13475;SDS011;6810;63.824;20.288;2024-03-02T16:06:26;11.77;;;6.47;;
13475;SDS011;6810;63.824;20.288;2024-03-02T16:09:13;10.47;;;5.73;;
13475;SDS011;6810;63.824;20.288;2024-03-02T16:12:00;9.73;;;5.70;;
13475;SDS011;6810;63.824;20.288;2024-03-02T16:14:49;9.43;;;5.40;;
13475;SDS011;6810;63.824;20.288;2024-03-02T16:17:35;10.63;;;6.07;;
13475;SDS011;6810;63.824;20.288;2024-03-02T16:20:22;10.03;;;5.43;;
13475;SDS011;6810;63.824;20.288;2024-03-02T16:23:09;10.37;;;5.30;;
13475;SDS011;6810;63.824;20.288;2024-03-02T16:25:56;10.23;;;5.60;;
13475;SDS011;6810;63.824;20.288;2024-03-02T16:28:43;9.13;;;5.47;;
13475;SDS011;6810;63.824;20.288;2024-03-02T16:31:30;11.60;;;6.00;;
13475;SDS011;6810;63.824;20.288;2024-03-02T16:34:17;13.03;;;6.70;;
13475;SDS011;6810;63.824;20.288;2024-03-02T16:37:04;10.53;;;5.43;;
13475;SDS011;6810;63.824;20.288;2024-03-02T16:39:52;11.53;;;5.80;;
13475;SDS011;6810;63.824;20.288;2024-03-02T16:42:39;10.83;;;5.73;;
13475;SDS011;6810;63.824;20.288;2024-03-02T16:45:26;12.03;;;5.87;;
13475;SDS011;6810;63.824;20.288;2024-03-02T16:48:13;13.27;;;6.40;;
13475;SDS011;6810;63.824;20.288;2024-03-02T16:51:00;12.23;;;5.87;;
13475;SDS011;6810;63.824;20.288;2024-03-02T16:53:47;12.13;;;6.30;;
13475;SDS011;6810;63.824;20.288;2024-03-02T16:56:37;14.27;;;6.30;;
13475;SDS011;6810;63.824;20.288;2024-03-02T16:59:28;13.07;;;6.17;;
13475;SDS011;6810;63.824;20.288;2024-03-02T17:02:15;15.37;;;6.60;;
13475;SDS011;6810;63.824;20.288;2024-03-02T17:05:02;13.33;;;6.47;;
13475;SDS011;6810;63.824;20.288;2024-03-02T17:07:50;12.67;;;6.60;;
13475;SDS011;6810;63.824;20.288;2024-03-02T17:10:37;13.87;;;6.40;;
13475;SDS011;6810;63.824;20.288;2024-03-02T17:13:24;13.70;;;7.63;;
13475;SDS011;6810;63.824;20.288;2024-03-02T17:16:11;15.43;;;7.10;;
13475;SDS011;6810;63.824;20.288;2024-03-02T17:18:58;15.07;;;7.37;;
13475;SDS011;6810;63.824;20.288;2024-03-02T17:21:45;14.37;;;6.87;;
13475;SDS011;6810;63.824;20.288;2024-03-02T17:24:32;14.77;;;7.00;;
13475;SDS011;6810;63.824;20.288;2024-03-02T17:27:19;17.13;;;8.00;;
13475;SDS011;6810;63.824;20.288;2024-03-02T17:30:06;13.73;;;7.40;;
13475;SDS011;6810;63.824;20.288;2024-03-02T17:32:53;16.07;;;7.73;;
13475;SDS011;6810;63.824;20.288;2024-03-02T17:35:40;16.90;;;7.80;;
13475;SDS011;6810;63.824;20.288;2024-03-02T17:38:27;13.43;;;7.13;;
13475;SDS011;6810;63.824;20.288;2024-03-02T17:41:14;15.63;;;6.77;;
13475;SDS011;6810;63.824;20.288;2024-03-02T17:44:01;13.63;;;6.63;;
13475;SDS011;6810;63.824;20.288;2024-03-02T17:46:49;16.50;;;7.13;;
13475;SDS011;6810;63.824;20.288;2024-03-02T17:49:36;17.27;;;7.40;;
13475;SDS011;6810;63.824;20.288;2024-03-02T17:52:23;16.57;;;7.50;;
13475;SDS011;6810;63.824;20.288;2024-03-02T17:55:09;14.77;;;6.53;;
13475;SDS011;6810;63.824;20.288;2024-03-02T17:57:56;13.07;;;6.67;;
13475;SDS011;6810;63.824;20.288;2024-03-02T18:00:43;12.93;;;6.80;;
13475;SDS011;6810;63.824;20.288;2024-03-02T18:03:30;14.73;;;7.20;;
13475;SDS011;6810;63.824;20.288;2024-03-02T18:06:17;17.67;;;7.10;;
13475;SDS011;6810;63.824;20.288;2024-03-02T18:09:04;14.07;;;6.53;;
13475;SDS011;6810;63.824;20.288;2024-03-02T18:11:51;14.63;;;7.90;;
13475;SDS011;6810;63.824;20.288;2024-03-02T18:14:38;12.97;;;6.97;;
13475;SDS011;6810;63.824;20.288;2024-03-02T18:17:25;17.47;;;7.83;;
13475;SDS011;6810;63.824;20.288;2024-03-02T18:20:12;16.57;;;7.80;;
13475;SDS011;6810;63.824;20.288;2024-03-02T18:22:59;18.90;;;8.33;;
13475;SDS011;6810;63.824;20.288;2024-03-02T18:25:46;17.47;;;8.10;;
13475;SDS011;6810;63.824;20.288;2024-03-02T18:28:14;15.03;;;7.37;;
13475;SDS011;6810;63.824;20.288;2024-03-02T18:30:41;14.90;;;8.00;;
13475;SDS011;6810;63.824;20.288;2024-03-02T18:33:28;16.47;;;7.97;;
13475;SDS011;6810;63.824;20.288;2024-03-02T18:36:15;19.17;;;9.03;;
13475;SDS011;6810;63.824;20.288;2024-03-02T18:39:02;22.63;;;8.57;;
13475;SDS011;6810;63.824;20.288;2024-03-02T18:41:49;16.13;;;8.00;;
13475;SDS011;6810;63.824;20.288;2024-03-02T18:44:36;18.83;;;8.03;;
13475;SDS011;6810;63.824;20.288;2024-03-02T18:47:23;15.77;;;7.07;;
13475;SDS011;6810;63.824;20.288;2024-03-02T18:50:10;15.83;;;7.27;;
13475;SDS011;6810;63.824;20.288;2024-03-02T18:52:57;18.97;;;8.20;;
13475;SDS011;6810;63.824;20.288;2024-03-02T18:55:44;17.00;;;7.70;;
13475;SDS011;6810;63.824;20.288;2024-03-02T18:58:31;14.00;;;7.63;;
13475;SDS011;6810;63.824;20.288;2024-03-02T19:01:18;16.50;;;8.00;;
13475;SDS011;6810;63.824;20.288;2024-03-02T19:04:05;17.67;;;7.40;;
13475;SDS011;6810;63.824;20.288;2024-03-02T19:06:52;17.00;;;7.47;;
13475;SDS011;6810;63.824;20.288;2024-03-02T19:09:39;15.23;;;7.50;;
13475;SDS011;6810;63.824;20.288;2024-03-02T19:12:26;17.23;;;8.10;;
13475;SDS011;6810;63.824;20.288;2024-03-02T19:15:13;16.63;;;8.07;;
13475;SDS011;6810;63.824;20.288;2024-03-02T19:18:00;18.10;;;7.93;;
13475;SDS011;6810;63.824;20.288;2024-03-02T19:20:47;17.70;;;8.03;;
13475;SDS011;6810;63.824;20.288;2024-03-02T19:23:34;14.70;;;7.57;;
13475;SDS011;6810;63.824;20.288;2024-03-02T19:26:21;17.03;;;7.93;;
13475;SDS011;6810;63.824;20.288;2024-03-02T19:29:08;18.93;;;9.43;;
13475;SDS011;6810;63.824;20.288;2024-03-02T19:31:55;18.40;;;7.97;;
13475;SDS011;6810;63.824;20.288;2024-03-02T19:34:47;17.83;;;8.30;;
13475;SDS011;6810;63.824;20.288;2024-03-02T19:37:34;20.60;;;8.33;;
13475;SDS011;6810;63.824;20.288;2024-03-02T19:40:21;17.63;;;8.37;;
13475;SDS011;6810;63.824;20.288;2024-03-02T19:43:08;18.77;;;8.50;;
13475;SDS011;6810;63.824;20.288;2024-03-02T19:45:55;18.30;;;8.57;;
13475;SDS011;6810;63.824;20.288;2024-03-02T19:48:42;19.87;;;9.13;;
13475;SDS011;6810;63.824;20.288;2024-03-02T19:51:29;15.63;;;8.30;;
13475;SDS011;6810;63.824;20.288;2024-03-02T19:54:16;15.67;;;7.93;;
13475;SDS011;6810;63.824;20.288;2024-03-02T19:57:03;18.17;;;8.47;;
13475;SDS011;6810;63.824;20.288;2024-03-02T19:59:50;16.07;;;7.80;;
13475;SDS011;6810;63.824;20.288;2024-03-02T20:02:37;15.10;;;7.87;;
13475;SDS011;6810;63.824;20.288;2024-03-02T20:05:25;16.03;;;8.47;;
13475;SDS011;6810;63.824;20.288;2024-03-02T20:08:12;17.47;;;8.50;;
13475;SDS011;6810;63.824;20.288;2024-03-02T20:11:01;17.00;;;8.40;;
13475;SDS011;6810;63.824;20.288;2024-03-02T20:13:49;13.63;;;7.53;;
13475;SDS011;6810;63.824;20.288;2024-03-02T20:16:36;14.70;;;7.70;;
13475;SDS011;6810;63.824;20.288;2024-03-02T20:19:23;14.87;;;7.90;;
13475;SDS011;6810;63.824;20.288;2024-03-02T20:22:10;16.17;;;7.90;;
13475;SDS011;6810;63.824;20.288;2024-03-02T20:24:57;14.90;;;8.30;;
13475;SDS011;6810;63.824;20.288;2024-03-02T20:27:44;16.50;;;7.43;;
13475;SDS011;6810;63.824;20.288;2024-03-02T20:30:31;13.47;;;7.13;;
13475;SDS011;6810;63.824;20.288;2024-03-02T20:33:18;15.67;;;6.77;;